Time;durP1;ratioP1;P1;durP2;ratioP2;P2;SDS_P1;SDS_P2;PMS_P1;PMS_P2;Temp;Humidity;BMP_temperature;BMP_pressure;BME280_temperature;BME280_humidity;BME280_pressure;Samples;Min_cycle;Max_cycle;Signal;HPM_P1;HPM_P2
2023/08/17 00:00:40;;;;;;;3.30;1.80;;;18.80;99.90;;;;;;4960562;28;38053;-78
2023/08/17 00:03:06;;;;;;;2.72;1.65;;;18.80;99.90;;;;;;4971438;28;38046;-78
2023/08/17 00:05:33;;;;;;;3.88;1.75;;;18.70;99.90;;;;;;4967576;28;38295;-77
2023/08/17 00:08:02;;;;;;;4.47;1.60;;;18.70;99.90;;;;;;4967990;28;36917;-78
2023/08/17 00:10:29;;;;;;;3.88;1.73;;;18.70;99.90;;;;;;4971956;28;48911;-79
2023/08/17 00:12:55;;;;;;;5.45;1.60;;;18.60;99.90;;;;;;4973663;28;38750;-78
2023/08/17 00:15:21;;;;;;;3.38;1.60;;;18.60;99.90;;;;;;4972770;28;37716;-77
2023/08/17 00:17:47;;;;;;;6.45;1.80;;;18.60;99.90;;;;;;4968145;28;39161;-78
2023/08/17 00:20:14;;;;;;;3.38;1.70;;;18.60;99.90;;;;;;4973668;28;37204;-78
2023/08/17 00:22:40;;;;;;;3.42;1.45;;;18.60;99.90;;;;;;4977421;28;38653;-78
2023/08/17 00:25:06;;;;;;;1.67;1.25;;;18.50;99.90;;;;;;4968649;28;37405;-78
2023/08/17 00:27:33;;;;;;;3.72;1.40;;;18.50;99.90;;;;;;4978018;28;37523;-78
2023/08/17 00:29:59;;;;;;;3.85;1.40;;;18.50;99.90;;;;;;4972486;28;36117;-78
2023/08/17 00:32:25;;;;;;;3.75;1.48;;;18.50;99.90;;;;;;4977026;28;37557;-78
2023/08/17 00:34:51;;;;;;;4.05;1.38;;;18.50;99.90;;;;;;4966517;28;39052;-79
2023/08/17 00:37:17;;;;;;;6.50;1.70;;;18.50;99.90;;;;;;4970774;28;37531;-78
2023/08/17 00:39:43;;;;;;;2.90;1.83;;;18.60;99.90;;;;;;4973582;28;38190;-79
2023/08/17 00:42:10;;;;;;;3.53;1.45;;;18.60;99.90;;;;;;4970859;28;37856;-78
2023/08/17 00:44:36;;;;;;;3.20;1.77;;;18.60;99.90;;;;;;4972402;28;38515;-79
2023/08/17 00:47:02;;;;;;;3.08;1.48;;;18.60;99.90;;;;;;4973306;28;38199;-78
2023/08/17 00:49:28;;;;;;;2.55;1.30;;;18.60;99.90;;;;;;4963996;28;38258;-78
2023/08/17 00:51:55;;;;;;;4.95;2.08;;;18.60;99.90;;;;;;4965753;28;38311;-79
2023/08/17 00:54:25;;;;;;;4.78;1.92;;;18.60;99.90;;;;;;4971703;28;39004;-79
2023/08/17 00:56:53;;;;;;;3.08;1.30;;;18.50;99.90;;;;;;4978270;28;37078;-79
2023/08/17 00:59:19;;;;;;;6.78;1.50;;;18.50;99.90;;;;;;4965616;28;36290;-79
2023/08/17 01:04:15;;;;;;;6.18;1.60;;;18.50;99.90;;;;;;4955488;28;20557;-76
2023/08/17 01:06:41;;;;;;;4.10;1.10;;;18.40;99.90;;;;;;4985459;28;38375;-76
2023/08/17 01:09:11;;;;;;;4.55;1.63;;;18.40;99.90;;;;;;5002919;28;36040;-75
2023/08/17 01:11:44;;;;;;;3.90;1.30;;;18.30;99.90;;;;;;4991114;28;38686;-76
2023/08/17 01:14:30;;;;;;;3.20;1.30;;;18.30;99.90;;;;;;5001155;28;39139;-76
2023/08/17 01:17:22;;;;;;;5.55;1.55;;;18.30;99.90;;;;;;4984670;28;37869;-76
2023/08/17 01:19:50;;;;;;;4.65;1.80;;;18.20;99.90;;;;;;4985586;28;48695;-76
2023/08/17 01:22:20;;;;;;;3.33;1.30;;;18.30;99.90;;;;;;5001811;28;39013;-76
2023/08/17 01:24:46;;;;;;;2.90;1.33;;;18.30;99.90;;;;;;4989234;28;37037;-76
2023/08/17 01:27:13;;;;;;;3.78;1.50;;;18.30;99.90;;;;;;4989311;28;37490;-75
2023/08/17 01:29:39;;;;;;;4.63;1.80;;;18.30;99.90;;;;;;4988623;28;36936;-76
2023/08/17 01:32:34;;;;;;;4.78;1.35;;;18.30;99.90;;;;;;4987754;28;37606;-76
2023/08/17 01:35:17;;;;;;;8.73;1.55;;;18.30;99.90;;;;;;5012265;28;37684;-75
2023/08/17 01:37:44;;;;;;;3.03;1.33;;;18.30;99.90;;;;;;4998839;28;47207;-76
2023/08/17 01:40:13;;;;;;;3.55;1.63;;;18.30;99.90;;;;;;4986670;28;37783;-75
2023/08/17 01:42:41;;;;;;;3.25;1.40;;;18.30;99.90;;;;;;4987718;28;39595;-75
2023/08/17 01:45:07;;;;;;;3.35;1.73;;;18.30;99.90;;;;;;4998096;28;38032;-76
2023/08/17 01:47:35;;;;;;;4.65;1.80;;;18.30;99.90;;;;;;4987091;28;38973;-75
2023/08/17 01:50:01;;;;;;;5.25;1.75;;;18.20;99.90;;;;;;5018038;28;38416;-76
2023/08/17 01:52:28;;;;;;;2.92;1.60;;;18.20;99.90;;;;;;4986875;28;38643;-75
2023/08/17 01:54:54;;;;;;;4.72;1.45;;;18.10;99.90;;;;;;4986875;28;38368;-75
2023/08/17 01:57:20;;;;;;;3.05;1.40;;;18.10;99.90;;;;;;4987020;28;39242;-75
2023/08/17 01:59:46;;;;;;;6.40;1.67;;;18.10;99.90;;;;;;4986960;28;36171;-76
2023/08/17 02:02:14;;;;;;;6.72;2.47;;;18.10;99.90;;;;;;4985342;28;39822;-76
2023/08/17 02:04:40;;;;;;;4.18;1.55;;;18.00;99.90;;;;;;5016834;28;37508;-76
2023/08/17 02:07:06;;;;;;;3.67;1.38;;;18.00;99.90;;;;;;4986975;28;38196;-75
2023/08/17 02:09:33;;;;;;;3.83;1.50;;;18.00;99.90;;;;;;4987324;28;36242;-76
2023/08/17 02:11:59;;;;;;;3.47;1.60;;;17.90;99.90;;;;;;4988181;28;38679;-75
2023/08/17 02:14:25;;;;;;;3.70;1.52;;;17.90;99.90;;;;;;5002753;28;37270;-75
2023/08/17 02:16:52;;;;;;;2.47;1.40;;;17.90;99.90;;;;;;4980035;28;37624;-76
2023/08/17 02:19:18;;;;;;;2.88;1.40;;;17.90;99.90;;;;;;4987808;28;37381;-75
2023/08/17 02:21:45;;;;;;;2.28;1.30;;;17.90;99.90;;;;;;4989529;28;38881;-76
2023/08/17 02:24:11;;;;;;;4.45;1.45;;;17.80;99.90;;;;;;4985130;28;37679;-75
2023/08/17 02:26:38;;;;;;;3.53;1.42;;;17.80;99.90;;;;;;4988744;28;38018;-76
2023/08/17 02:29:04;;;;;;;3.78;1.60;;;17.70;99.90;;;;;;4987124;28;37799;-76
2023/08/17 02:31:30;;;;;;;5.20;1.40;;;17.70;99.90;;;;;;4987397;28;38395;-75
2023/08/17 02:34:00;;;;;;;3.47;1.33;;;17.70;99.90;;;;;;4983340;28;38037;-76
2023/08/17 02:36:27;;;;;;;4.28;1.70;;;17.70;99.90;;;;;;4985342;28;38737;-75
2023/08/17 02:38:53;;;;;;;3.70;1.50;;;17.70;99.90;;;;;;4991942;28;38227;-75
2023/08/17 02:41:19;;;;;;;6.05;1.83;;;17.70;99.90;;;;;;4988420;28;39183;-75
2023/08/17 02:43:45;;;;;;;6.90;1.95;;;17.70;99.90;;;;;;4992608;28;37270;-75
2023/08/17 02:46:11;;;;;;;5.93;1.70;;;17.70;99.90;;;;;;4985367;28;37841;-75
2023/08/17 02:48:37;;;;;;;3.47;1.30;;;17.70;99.90;;;;;;5002758;28;36196;-75
2023/08/17 02:51:03;;;;;;;2.83;1.30;;;17.70;99.90;;;;;;4981943;28;38278;-76
2023/08/17 02:53:29;;;;;;;3.25;1.27;;;17.70;99.90;;;;;;4989554;28;38936;-76
2023/08/17 02:55:56;;;;;;;5.60;1.67;;;17.70;99.90;;;;;;5003019;28;39375;-75
2023/08/17 02:58:22;;;;;;;3.28;1.23;;;17.80;99.90;;;;;;4992340;28;36791;-75
2023/08/17 03:00:51;;;;;;;3.90;1.60;;;17.70;99.90;;;;;;4990569;28;39824;-76
2023/08/17 03:03:17;;;;;;;3.67;1.20;;;17.70;99.90;;;;;;5005312;28;37490;-76
2023/08/17 03:05:43;;;;;;;3.35;1.30;;;17.70;99.90;;;;;;4989458;28;37427;-76
2023/08/17 03:08:09;;;;;;;5.15;1.35;;;17.70;99.90;;;;;;5004853;28;36010;-76
2023/08/17 03:10:37;;;;;;;5.20;1.58;;;17.60;99.90;;;;;;4990371;28;37875;-75
2023/08/17 03:13:03;;;;;;;6.18;2.13;;;17.70;99.90;;;;;;4991696;28;38598;-76
2023/08/17 03:15:29;;;;;;;6.78;1.40;;;17.70;99.90;;;;;;4988973;28;38317;-76
2023/08/17 03:17:55;;;;;;;3.70;1.55;;;17.60;99.90;;;;;;5006670;28;36284;-76
2023/08/17 03:20:22;;;;;;;5.80;1.50;;;17.50;99.90;;;;;;4986910;28;39134;-76
2023/08/17 03:22:48;;;;;;;10.48;1.95;;;17.50;99.90;;;;;;5006558;28;37676;-76
2023/08/17 03:25:14;;;;;;;3.63;1.70;;;17.50;99.90;;;;;;4988397;28;39126;-76
2023/08/17 03:27:40;;;;;;;5.13;1.60;;;17.50;99.90;;;;;;4990551;28;36004;-75
2023/08/17 03:30:07;;;;;;;5.18;1.77;;;17.50;99.90;;;;;;4986322;28;38944;-75
2023/08/17 03:32:33;;;;;;;6.03;1.83;;;17.50;99.90;;;;;;4989129;28;47308;-75
2023/08/17 03:34:59;;;;;;;5.07;1.67;;;17.40;99.90;;;;;;4986217;28;37923;-75
2023/08/17 03:37:25;;;;;;;7.05;2.25;;;17.40;99.90;;;;;;5000720;28;36435;-75
2023/08/17 03:39:51;;;;;;;5.15;1.92;;;17.40;99.90;;;;;;4980885;28;37736;-76
2023/08/17 03:42:17;;;;;;;4.70;1.80;;;17.40;99.90;;;;;;5000040;28;38800;-76
2023/08/17 03:44:43;;;;;;;3.10;1.48;;;17.40;99.90;;;;;;4987218;28;39345;-76
2023/08/17 03:47:09;;;;;;;5.35;2.20;;;17.50;99.90;;;;;;4992005;28;36136;-75
2023/08/17 03:49:35;;;;;;;5.05;1.63;;;17.50;99.90;;;;;;4991392;28;39847;-76
2023/08/17 03:52:01;;;;;;;7.85;1.85;;;17.50;99.90;;;;;;5001900;28;38836;-76
2023/08/17 03:54:28;;;;;;;3.80;1.50;;;17.50;99.90;;;;;;4988529;28;36843;-75
2023/08/17 03:56:54;;;;;;;4.32;1.60;;;17.50;99.90;;;;;;4987784;28;36021;-76
2023/08/17 03:59:20;;;;;;;4.60;1.77;;;17.40;99.90;;;;;;4982009;28;39996;-76
2023/08/17 04:01:46;;;;;;;5.80;1.70;;;17.50;99.90;;;;;;4988211;28;37381;-75
2023/08/17 04:04:12;;;;;;;4.15;1.60;;;17.50;99.90;;;;;;4999461;28;37474;-76
2023/08/17 04:06:40;;;;;;;6.53;1.85;;;17.50;99.90;;;;;;4984826;28;36999;-75
2023/08/17 04:09:06;;;;;;;8.25;1.98;;;17.50;99.90;;;;;;5000904;28;37622;-75
2023/08/17 04:11:36;;;;;;;4.43;1.17;;;17.50;99.90;;;;;;4990997;28;39148;-75
2023/08/17 04:14:03;;;;;;;5.63;1.60;;;17.50;99.90;;;;;;5001692;28;36936;-75
2023/08/17 04:16:29;;;;;;;3.35;1.60;;;17.50;99.90;;;;;;4985975;28;37729;-76
2023/08/17 04:18:56;;;;;;;4.13;1.80;;;17.50;99.90;;;;;;4994887;28;37961;-75
2023/08/17 04:21:22;;;;;;;9.30;2.20;;;17.50;99.90;;;;;;4987852;28;39393;-75
2023/08/17 04:23:48;;;;;;;5.05;1.35;;;17.50;99.90;;;;;;4987086;28;37836;-75
2023/08/17 04:26:14;;;;;;;7.32;1.65;;;17.50;99.90;;;;;;5003345;28;36588;-76
2023/08/17 04:28:40;;;;;;;5.95;1.55;;;17.50;99.90;;;;;;4988618;28;38936;-74
2023/08/17 04:31:06;;;;;;;4.97;1.73;;;17.50;99.90;;;;;;4983961;28;38757;-75
2023/08/17 04:33:32;;;;;;;6.22;1.77;;;17.50;99.90;;;;;;4983263;28;38013;-75
2023/08/17 04:35:59;;;;;;;7.38;2.00;;;17.50;99.90;;;;;;5004052;28;35959;-75
2023/08/17 04:38:25;;;;;;;5.85;2.00;;;17.50;99.90;;;;;;4985783;28;38528;-75
2023/08/17 04:40:52;;;;;;;9.50;2.20;;;17.50;99.90;;;;;;4985630;28;37024;-75
2023/08/17 04:43:18;;;;;;;10.35;2.03;;;17.60;99.90;;;;;;5002092;28;38030;-75
2023/08/17 04:45:47;;;;;;;9.15;1.60;;;17.60;99.90;;;;;;5004226;28;36378;-76
2023/08/17 04:48:13;;;;;;;10.63;3.17;;;17.60;99.90;;;;;;4989736;28;39510;-76
2023/08/17 04:50:40;;;;;;;7.35;1.55;;;17.60;99.90;;;;;;4987719;28;38968;-75
2023/08/17 04:53:06;;;;;;;5.90;1.60;;;17.60;99.90;;;;;;5000698;28;38171;-75
2023/08/17 04:55:32;;;;;;;6.00;1.75;;;17.60;99.90;;;;;;4988267;28;37397;-75
2023/08/17 04:57:58;;;;;;;7.35;1.88;;;17.60;99.90;;;;;;4982459;28;39787;-73
2023/08/17 05:00:27;;;;;;;3.13;1.63;;;17.60;99.90;;;;;;4986552;28;38491;-74
2023/08/17 05:02:57;;;;;;;3.38;1.40;;;17.50;99.90;;;;;;4980957;28;37125;-74
2023/08/17 05:05:24;;;;;;;3.03;1.58;;;17.50;99.90;;;;;;4985548;28;37312;-74
2023/08/17 05:07:50;;;;;;;4.25;1.67;;;17.50;99.90;;;;;;4974444;28;39453;-76
2023/08/17 05:10:16;;;;;;;9.40;1.52;;;17.50;99.90;;;;;;4986121;28;38223;-75
2023/08/17 05:12:43;;;;;;;3.67;1.30;;;17.50;99.90;;;;;;4978684;28;37828;-77
2023/08/17 05:15:09;;;;;;;4.50;1.60;;;17.50;99.90;;;;;;4983713;28;38153;-75
2023/08/17 05:17:35;;;;;;;9.02;1.65;;;17.50;99.90;;;;;;5000858;28;38997;-75
2023/08/17 05:20:02;;;;;;;5.35;2.05;;;17.60;99.90;;;;;;4983719;28;37825;-75
2023/08/17 05:22:28;;;;;;;3.78;1.60;;;17.60;99.90;;;;;;4984505;28;37107;-74
2023/08/17 05:24:54;;;;;;;4.43;1.45;;;17.60;99.90;;;;;;4984139;28;36513;-75
2023/08/17 05:27:21;;;;;;;7.10;1.73;;;17.60;99.90;;;;;;4982621;28;38577;-75
2023/08/17 05:29:47;;;;;;;4.25;1.95;;;17.70;99.90;;;;;;4984664;28;38320;-75
2023/08/17 05:32:13;;;;;;;7.13;1.60;;;17.70;99.90;;;;;;5016714;28;36975;-75
2023/08/17 05:34:39;;;;;;;6.95;2.00;;;17.70;99.90;;;;;;4985825;28;36087;-75
2023/08/17 05:37:05;;;;;;;4.25;1.58;;;17.80;99.90;;;;;;4979168;28;39322;-76
2023/08/17 05:39:31;;;;;;;3.13;1.52;;;17.80;99.90;;;;;;4984264;28;37250;-76
2023/08/17 05:41:57;;;;;;;10.43;1.65;;;17.80;99.90;;;;;;5013572;28;41142;-76
2023/08/17 05:44:23;;;;;;;5.60;1.83;;;17.80;99.90;;;;;;4983941;28;36235;-75
2023/08/17 05:46:49;;;;;;;3.63;1.30;;;17.80;99.90;;;;;;4988916;28;39594;-78
2023/08/17 05:49:15;;;;;;;8.23;1.80;;;17.80;99.90;;;;;;4988611;28;39352;-76
2023/08/17 05:51:41;;;;;;;5.45;1.60;;;17.80;99.90;;;;;;4986609;28;38129;-76
2023/08/17 05:54:08;;;;;;;7.38;1.95;;;17.80;99.90;;;;;;4984506;28;37181;-76
2023/08/17 05:56:34;;;;;;;6.05;1.52;;;17.80;99.90;;;;;;4986355;28;38622;-76
2023/08/17 05:59:00;;;;;;;7.68;1.98;;;17.90;99.90;;;;;;4983073;28;37591;-75
2023/08/17 06:01:26;;;;;;;3.78;1.50;;;17.90;99.90;;;;;;4983247;28;46665;-74
2023/08/17 06:03:52;;;;;;;6.82;1.90;;;17.90;99.90;;;;;;4986047;28;37516;-76
2023/08/17 06:06:19;;;;;;;4.18;1.48;;;17.90;99.90;;;;;;4989278;28;38760;-76
2023/08/17 06:08:45;;;;;;;3.35;1.65;;;17.90;99.90;;;;;;4989915;28;38444;-76
2023/08/17 06:11:11;;;;;;;8.50;1.70;;;17.90;99.90;;;;;;4998046;28;38425;-78
2023/08/17 06:13:37;;;;;;;4.90;1.60;;;17.90;99.90;;;;;;5000508;28;36046;-77
2023/08/17 06:16:04;;;;;;;5.68;1.67;;;17.90;99.90;;;;;;4991090;28;37660;-77
2023/08/17 06:18:30;;;;;;;7.22;1.50;;;17.90;99.90;;;;;;4990519;28;37732;-77
2023/08/17 06:20:56;;;;;;;6.65;1.58;;;17.90;99.90;;;;;;5007434;28;36971;-77
2023/08/17 06:23:24;;;;;;;5.03;1.55;;;18.00;99.90;;;;;;4988296;28;37363;-77
2023/08/17 06:25:50;;;;;;;8.60;1.83;;;18.00;99.90;;;;;;4991858;28;39324;-77
2023/08/17 06:28:16;;;;;;;6.07;1.73;;;18.00;99.90;;;;;;4987882;28;37077;-77
2023/08/17 06:30:42;;;;;;;9.20;1.80;;;18.10;99.90;;;;;;5002475;28;37931;-76
2023/08/17 06:33:08;;;;;;;6.93;1.63;;;18.10;99.90;;;;;;4984520;28;37245;-77
2023/08/17 06:35:34;;;;;;;5.45;2.10;;;18.20;99.90;;;;;;4985313;28;38573;-76
2023/08/17 06:38:01;;;;;;;6.28;1.73;;;18.30;99.90;;;;;;4990389;28;39000;-76
2023/08/17 06:40:27;;;;;;;4.50;1.70;;;18.40;99.90;;;;;;4987391;28;47305;-76
2023/08/17 06:42:54;;;;;;;3.75;1.48;;;18.50;99.90;;;;;;5013146;28;37071;-74
2023/08/17 06:45:20;;;;;;;5.00;1.60;;;18.60;99.90;;;;;;4988206;28;38088;-75
2023/08/17 06:47:48;;;;;;;3.30;1.40;;;18.70;99.90;;;;;;4987009;28;39018;-74
2023/08/17 06:50:14;;;;;;;5.75;1.63;;;18.70;99.90;;;;;;4985085;28;37800;-74
2023/08/17 06:52:41;;;;;;;4.18;1.90;;;18.70;99.90;;;;;;4984453;28;37043;-74
2023/08/17 06:55:07;;;;;;;2.33;1.30;;;18.90;99.90;;;;;;4983962;28;39902;-74
2023/08/17 06:57:33;;;;;;;6.35;1.48;;;18.80;99.90;;;;;;5009039;28;38306;-74
2023/08/17 06:59:59;;;;;;;4.30;1.42;;;18.90;99.90;;;;;;4986467;28;38183;-74
2023/08/17 07:02:26;;;;;;;6.00;1.65;;;19.00;99.90;;;;;;4984960;28;37554;-73
2023/08/17 07:04:52;;;;;;;4.13;1.85;;;19.10;99.90;;;;;;4988824;28;39892;-73
2023/08/17 07:07:18;;;;;;;5.03;1.50;;;19.10;99.90;;;;;;4987150;28;37289;-74
2023/08/17 07:09:44;;;;;;;5.25;1.48;;;19.20;99.90;;;;;;5005916;28;38376;-73
2023/08/17 07:12:10;;;;;;;4.47;1.23;;;19.40;99.90;;;;;;4989950;28;37335;-74
2023/08/17 07:14:37;;;;;;;2.97;1.40;;;19.50;99.90;;;;;;4985837;28;37735;-73
2023/08/17 07:17:03;;;;;;;4.38;1.20;;;19.50;94.40;;;;;;4990636;28;37481;-74
2023/08/17 07:19:29;;;;;;;7.75;2.00;;;19.60;91.10;;;;;;4984174;28;37952;-73
2023/08/17 07:21:55;;;;;;;6.65;2.10;;;19.70;94.10;;;;;;4984779;28;36415;-73
2023/08/17 07:24:21;;;;;;;4.00;1.65;;;19.90;84.20;;;;;;5004498;28;39050;-73
2023/08/17 07:26:47;;;;;;;8.90;1.42;;;19.90;90.00;;;;;;4985375;28;37548;-73
2023/08/17 07:29:13;;;;;;;6.20;1.77;;;19.80;90.80;;;;;;4986285;28;37735;-73
2023/08/17 07:31:39;;;;;;;9.15;1.98;;;19.70;91.80;;;;;;4984397;28;38058;-73
2023/08/17 07:34:06;;;;;;;6.50;1.90;;;19.70;90.50;;;;;;5007315;28;37699;-74
2023/08/17 07:36:33;;;;;;;7.38;1.70;;;19.90;86.70;;;;;;4986798;28;39425;-73
2023/08/17 07:39:00;;;;;;;6.18;1.90;;;20.10;97.50;;;;;;4987299;28;37971;-73
2023/08/17 07:41:27;;;;;;;6.72;1.75;;;20.20;80.70;;;;;;4989644;28;36833;-74
2023/08/17 07:43:53;;;;;;;9.63;2.15;;;20.40;71.30;;;;;;4990525;28;40235;-73
2023/08/17 07:46:19;;;;;;;6.78;1.80;;;20.40;66.10;;;;;;4988311;28;37481;-73
2023/08/17 07:48:45;;;;;;;4.40;2.00;;;20.30;75.90;;;;;;5003600;28;37309;-74
2023/08/17 07:51:11;;;;;;;7.18;2.05;;;20.00;78.00;;;;;;4985273;28;35902;-73
2023/08/17 07:53:37;;;;;;;5.07;1.88;;;19.80;94.80;;;;;;4989369;28;37277;-74
2023/08/17 07:56:03;;;;;;;4.22;1.83;;;19.70;99.90;;;;;;4989053;28;38199;-74
2023/08/17 07:58:29;;;;;;;9.85;1.77;;;19.80;98.20;;;;;;4989156;28;38730;-73
2023/08/17 08:00:56;;;;;;;8.18;1.95;;;19.80;98.90;;;;;;4989122;28;36105;-73
2023/08/17 08:03:22;;;;;;;6.28;1.95;;;20.00;96.60;;;;;;4989247;28;38977;-75
2023/08/17 08:05:48;;;;;;;7.10;1.80;;;20.20;91.90;;;;;;5005904;28;37644;-73
2023/08/17 08:08:16;;;;;;;5.60;2.10;;;20.40;86.60;;;;;;4981672;28;37033;-74
2023/08/17 08:10:44;;;;;;;8.05;2.35;;;20.40;71.70;;;;;;4988115;28;20042;-72
2023/08/17 08:13:10;;;;;;;7.75;2.15;;;20.40;84.00;;;;;;4982700;28;39065;-72
2023/08/17 08:15:36;;;;;;;5.95;2.10;;;20.40;90.50;;;;;;4983164;28;40334;-73
2023/08/17 08:18:02;;;;;;;8.30;1.90;;;20.50;92.10;;;;;;5000313;28;37271;-74
2023/08/17 08:20:29;;;;;;;6.07;2.00;;;21.00;95.30;;;;;;4983006;28;36953;-75
2023/08/17 08:22:55;;;;;;;6.68;2.13;;;21.20;58.10;;;;;;4983527;28;38300;-76
2023/08/17 08:25:21;;;;;;;6.70;2.00;;;21.10;59.20;;;;;;4981538;28;38224;-76
2023/08/17 08:27:47;;;;;;;4.88;1.50;;;21.00;72.20;;;;;;4985714;28;38542;-76
2023/08/17 08:30:13;;;;;;;8.82;2.20;;;21.10;64.00;;;;;;4985405;28;38219;-76
2023/08/17 08:32:39;;;;;;;6.90;2.75;;;21.40;85.00;;;;;;4998307;28;37882;-76
2023/08/17 08:35:06;;;;;;;6.93;2.25;;;21.70;56.50;;;;;;4994497;28;39053;-74
2023/08/17 08:37:32;;;;;;;14.15;2.50;;;22.00;39.30;;;;;;5004720;28;37101;-74
2023/08/17 08:39:59;;;;;;;7.80;1.90;;;22.20;18.30;;;;;;4985426;28;37288;-73
2023/08/17 08:42:25;;;;;;;3.47;1.48;;;22.30;9.50;;;;;;4984832;28;37778;-73
2023/08/17 08:44:51;;;;;;;6.93;1.48;;;22.40;22.00;;;;;;4980355;28;38979;-77
2023/08/17 08:47:18;;;;;;;10.77;1.75;;;22.50;17.30;;;;;;4982752;28;37029;-76
2023/08/17 08:50:03;;;;;;;4.30;1.50;;;22.60;1.00;;;;;;4982954;28;37338;-77
2023/08/17 08:52:40;;;;;;;8.48;2.05;;;22.70;4.60;;;;;;4986776;28;38535;-74
2023/08/17 08:55:18;;;;;;;10.95;2.42;;;22.80;1.00;;;;;;4984480;28;37177;-74
2023/08/17 08:57:45;;;;;;;5.70;1.65;;;22.70;1.00;;;;;;4984277;28;37160;-75
2023/08/17 09:00:16;;;;;;;4.68;1.77;;;22.80;1.00;;;;;;4985146;28;35990;-74
2023/08/17 09:02:43;;;;;;;5.05;1.83;;;22.70;1.00;;;;;;4980059;28;37259;-74
2023/08/17 09:05:11;;;;;;;5.28;1.55;;;22.60;1.00;;;;;;4995510;28;37513;-76
2023/08/17 09:07:38;;;;;;;5.63;1.48;;;22.70;14.80;;;;;;4975784;28;37015;-75
2023/08/17 09:10:05;;;;;;;5.40;2.10;;;22.90;1.00;;;;;;4980835;28;37425;-76
2023/08/17 09:12:31;;;;;;;9.68;1.75;;;23.10;1.00;;;;;;4998998;28;48435;-76
2023/08/17 09:14:58;;;;;;;9.52;2.17;;;23.10;1.00;;;;;;4999666;28;37267;-76
2023/08/17 09:17:25;;;;;;;4.85;1.33;;;23.30;1.00;;;;;;4987491;28;38721;-76
2023/08/17 09:19:52;;;;;;;7.45;1.60;;;23.20;1.00;;;;;;4986015;28;35753;-76
2023/08/17 09:22:42;;;;;;;5.88;1.60;;;23.30;1.00;;;;;;4983253;28;39557;-76
2023/08/17 09:25:10;;;;;;;7.60;1.90;;;23.30;1.00;;;;;;4981180;28;37511;-76
2023/08/17 09:27:37;;;;;;;5.28;2.20;;;23.10;1.00;;;;;;4975129;28;37575;-76
2023/08/17 09:30:11;;;;;;;7.45;1.90;;;23.00;1.00;;;;;;4994087;28;36926;-76
2023/08/17 09:32:37;;;;;;;6.40;1.80;;;22.80;1.00;;;;;;4985580;28;47204;-76
2023/08/17 09:35:08;;;;;;;8.68;2.08;;;22.70;1.00;;;;;;4993730;28;38053;-76
2023/08/17 09:37:34;;;;;;;5.35;2.00;;;22.50;1.00;;;;;;4985640;28;47287;-76
2023/08/17 09:40:01;;;;;;;6.63;1.70;;;22.20;1.00;;;;;;4980723;28;37002;-75
2023/08/17 09:42:27;;;;;;;7.47;1.70;;;22.00;19.70;;;;;;4993005;28;37562;-75
2023/08/17 09:44:55;;;;;;;7.93;1.80;;;22.20;17.80;;;;;;4991668;28;37781;-78
2023/08/17 09:47:32;;;;;;;7.25;1.65;;;22.60;1.00;;;;;;4991065;28;36986;-74
2023/08/17 09:49:58;;;;;;;5.72;1.73;;;22.60;1.00;;;;;;4985536;28;36526;-75
2023/08/17 09:52:24;;;;;;;10.55;2.83;;;22.40;22.50;;;;;;4994329;28;40037;-75
2023/08/17 09:54:52;;;;;;;3.80;1.30;;;22.30;1.00;;;;;;4978791;28;39445;-75
2023/08/17 09:57:18;;;;;;;3.75;1.80;;;22.40;12.30;;;;;;4984776;28;38242;-74
2023/08/17 09:59:45;;;;;;;7.85;1.70;;;22.40;15.50;;;;;;5002865;28;36990;-75
2023/08/17 10:02:21;;;;;;;4.45;1.73;;;22.80;1.00;;;;;;4984548;28;38911;-74
2023/08/17 10:04:51;;;;;;;6.82;1.83;;;23.20;1.00;;;;;;4978221;28;39118;-75
2023/08/17 10:07:24;;;;;;;7.85;2.00;;;23.40;1.00;;;;;;4983091;28;37562;-75
2023/08/17 10:10:00;;;;;;;5.10;1.77;;;23.40;1.00;;;;;;4983765;28;36091;-75
2023/08/17 10:12:28;;;;;;;6.95;1.73;;;23.10;1.00;;;;;;4980590;28;39775;-75
2023/08/17 10:15:07;;;;;;;5.88;1.70;;;23.30;1.00;;;;;;4981036;28;38448;-75
2023/08/17 10:17:41;;;;;;;5.07;1.70;;;23.30;1.00;;;;;;4986294;28;49042;-75
2023/08/17 10:20:08;;;;;;;6.35;1.83;;;23.30;1.00;;;;;;4986880;28;36997;-75
2023/08/17 10:22:44;;;;;;;7.03;1.70;;;23.20;1.00;;;;;;4986694;28;37368;-75
2023/08/17 10:25:13;;;;;;;8.02;2.05;;;23.30;1.00;;;;;;4986076;28;37844;-75
2023/08/17 10:27:43;;;;;;;8.45;2.95;;;23.30;1.00;;;;;;4986102;28;38425;-75
2023/08/17 10:30:11;;;;;;;4.55;1.58;;;23.30;1.00;;;;;;4973751;28;36375;-74
2023/08/17 10:32:38;;;;;;;5.20;2.03;;;23.60;1.00;;;;;;4978295;28;37524;-74
2023/08/17 10:35:06;;;;;;;6.25;2.00;;;23.70;1.00;;;;;;4984167;28;37273;-75
2023/08/17 10:37:32;;;;;;;6.13;1.80;;;23.80;1.00;;;;;;4977371;28;48858;-76
2023/08/17 10:39:59;;;;;;;7.65;1.95;;;24.10;1.00;;;;;;4985060;28;37282;-75
2023/08/17 10:42:32;;;;;;;4.35;1.65;;;24.30;1.00;;;;;;4984728;28;37765;-74
2023/08/17 10:45:01;;;;;;;4.63;2.13;;;24.40;1.00;;;;;;4977405;28;38248;-75
2023/08/17 10:47:28;;;;;;;6.18;1.70;;;24.40;1.00;;;;;;4974740;28;38247;-75
2023/08/17 10:50:22;;;;;;;4.10;1.50;;;24.50;1.00;;;;;;4977555;28;37586;-75
2023/08/17 10:52:49;;;;;;;5.18;2.15;;;24.60;1.00;;;;;;4966743;28;48416;-76
2023/08/17 10:55:16;;;;;;;7.70;2.92;;;24.40;1.00;;;;;;4975739;28;38569;-76
2023/08/17 10:57:45;;;;;;;5.60;2.10;;;23.80;1.00;;;;;;4995277;28;37166;-76
2023/08/17 11:00:37;;;;;;;5.68;1.90;;;23.60;1.00;;;;;;4975498;28;36971;-76
2023/08/17 11:03:17;;;;;;;4.32;1.80;;;23.50;1.00;;;;;;4974446;28;47648;-76
2023/08/17 11:05:48;;;;;;;5.38;2.25;;;23.70;27.40;;;;;;4973448;28;38476;-75
2023/08/17 11:08:34;;;;;;;8.68;2.28;;;23.60;1.00;;;;;;4992167;28;36922;-76
2023/08/17 11:11:10;;;;;;;3.30;2.25;;;23.50;1.00;;;;;;4982449;28;38239;-76
2023/08/17 11:13:38;;;;;;;6.93;2.50;;;23.40;1.00;;;;;;5010839;28;47181;-76
2023/08/17 11:16:06;;;;;;;4.90;2.10;;;23.30;1.00;;;;;;4999366;28;37370;-76
2023/08/17 11:18:33;;;;;;;4.18;1.98;;;23.40;1.00;;;;;;4993698;28;38154;-76
2023/08/17 11:21:01;;;;;;;6.95;2.40;;;23.30;1.00;;;;;;4986014;28;37364;-76
2023/08/17 11:23:30;;;;;;;5.90;2.00;;;23.40;1.00;;;;;;4986461;28;47112;-76
2023/08/17 11:25:56;;;;;;;7.65;2.58;;;23.40;1.00;;;;;;4991236;28;39567;-76
2023/08/17 11:28:24;;;;;;;4.75;2.10;;;23.40;1.00;;;;;;4980576;28;37930;-76
2023/08/17 11:31:04;;;;;;;5.60;2.45;;;23.50;1.00;;;;;;4987628;28;35947;-76
2023/08/17 11:33:31;;;;;;;10.10;2.50;;;23.60;1.00;;;;;;4988694;28;47432;-76
2023/08/17 11:35:58;;;;;;;5.65;2.15;;;23.50;1.00;;;;;;4981694;28;38288;-75
2023/08/17 11:38:26;;;;;;;8.93;2.20;;;23.60;1.00;;;;;;4986964;28;35142;-74
2023/08/17 11:40:52;;;;;;;4.68;1.92;;;23.60;1.00;;;;;;5003703;28;37517;-75
2023/08/17 11:43:21;;;;;;;7.05;2.35;;;23.70;1.00;;;;;;4991835;28;39664;-75
2023/08/17 11:45:48;;;;;;;7.70;1.90;;;23.80;1.00;;;;;;4986207;28;39484;-76
2023/08/17 11:48:16;;;;;;;6.97;2.20;;;23.90;1.00;;;;;;4986323;28;38272;-75
2023/08/17 11:50:43;;;;;;;4.88;2.10;;;24.00;1.00;;;;;;5002671;28;37443;-75
2023/08/17 11:53:09;;;;;;;5.40;1.75;;;24.00;1.00;;;;;;5003092;28;36978;-75
2023/08/17 11:55:35;;;;;;;4.35;1.75;;;24.00;1.00;;;;;;5003162;28;39228;-75
2023/08/17 11:58:02;;;;;;;4.72;1.40;;;24.10;6.60;;;;;;4989220;28;37182;-75
2023/08/17 12:00:40;;;;;;;6.35;1.60;;;24.20;1.00;;;;;;4996902;28;47114;-75
2023/08/17 12:03:07;;;;;;;6.63;1.50;;;24.20;1.00;;;;;;4986684;28;37013;-75
2023/08/17 12:05:33;;;;;;;8.98;2.35;;;24.20;1.00;;;;;;4988146;28;37127;-75
2023/08/17 12:08:01;;;;;;;4.90;1.90;;;24.00;1.00;;;;;;4984277;28;36997;-75
2023/08/17 12:10:38;;;;;;;5.72;1.77;;;23.80;1.00;;;;;;4999541;28;37302;-75
2023/08/17 12:13:04;;;;;;;4.65;1.83;;;23.90;1.00;;;;;;4986379;28;40867;-75
2023/08/17 12:15:32;;;;;;;5.57;2.08;;;24.00;1.00;;;;;;4987119;28;37202;-75
2023/08/17 12:18:00;;;;;;;7.80;2.40;;;24.10;1.00;;;;;;4983071;28;38053;-75
2023/08/17 12:20:26;;;;;;;4.55;1.77;;;24.10;1.00;;;;;;4978873;28;36884;-75
2023/08/17 12:22:52;;;;;;;7.28;2.10;;;24.30;1.00;;;;;;4984279;28;37940;-75
2023/08/17 12:25:22;;;;;;;5.47;1.80;;;24.40;1.00;;;;;;5001660;28;37225;-75
2023/08/17 12:27:49;;;;;;;6.65;2.10;;;24.50;1.00;;;;;;4984772;28;38243;-75
2023/08/17 12:30:31;;;;;;;4.05;1.67;;;24.80;1.00;;;;;;4985726;28;37749;-75
2023/08/17 12:32:57;;;;;;;4.35;1.92;;;24.80;1.00;;;;;;4989249;28;38777;-75
2023/08/17 12:35:24;;;;;;;7.65;2.10;;;24.90;1.00;;;;;;4989317;28;38309;-75
2023/08/17 12:37:54;;;;;;;6.80;2.00;;;24.90;1.00;;;;;;4987642;28;36796;-75
2023/08/17 12:40:21;;;;;;;8.93;2.05;;;24.90;1.00;;;;;;4988387;28;37371;-75
2023/08/17 12:42:49;;;;;;;4.68;2.17;;;24.70;1.00;;;;;;4990383;28;39099;-75
2023/08/17 12:45:15;;;;;;;5.30;2.03;;;24.40;1.00;;;;;;4986099;28;39324;-76
2023/08/17 12:47:42;;;;;;;6.43;1.83;;;24.20;1.00;;;;;;4988544;28;38194;-75
2023/08/17 12:50:09;;;;;;;4.95;2.00;;;24.20;1.00;;;;;;4992804;28;37704;-75
2023/08/17 12:52:35;;;;;;;6.47;2.35;;;24.10;1.00;;;;;;4986536;28;38750;-75
2023/08/17 12:55:01;;;;;;;4.22;2.20;;;24.10;1.00;;;;;;5001105;28;38181;-75